createdAt,value
2022-12-12T00:00:43.000Z,270.9
2022-12-12T00:02:08.000Z,270.9
2022-12-12T00:04:11.000Z,270.84
2022-12-12T00:05:36.000Z,270.84
2022-12-12T00:07:39.000Z,270.9
2022-12-12T00:09:03.000Z,270.9
2022-12-12T00:11:07.000Z,270.9
2022-12-12T00:12:31.000Z,270.9
2022-12-12T00:14:35.000Z,270.9
2022-12-12T00:15:59.000Z,270.9
2022-12-12T00:18:03.000Z,270.9
2022-12-12T00:19:27.000Z,270.9
2022-12-12T00:21:31.000Z,270.9
2022-12-12T00:22:55.000Z,270.9
2022-12-12T00:24:58.000Z,270.9
2022-12-12T00:26:23.000Z,270.96
2022-12-12T00:28:26.000Z,270.96
2022-12-12T00:31:16.000Z,270.9
2022-12-12T00:32:40.000Z,270.9
2022-12-12T00:34:43.000Z,270.9
2022-12-12T00:36:08.000Z,270.9
2022-12-12T00:38:11.000Z,270.9
2022-12-12T00:39:36.000Z,270.9
2022-12-12T00:41:39.000Z,270.84
2022-12-12T00:43:04.000Z,270.9
2022-12-12T00:45:07.000Z,270.84
2022-12-12T00:46:32.000Z,270.84
2022-12-12T00:48:36.000Z,270.84
2022-12-12T00:50:00.000Z,270.84
2022-12-12T00:52:04.000Z,270.84
2022-12-12T00:53:28.000Z,270.84
2022-12-12T00:55:32.000Z,270.84
2022-12-12T00:56:56.000Z,270.84
2022-12-12T00:59:00.000Z,270.84
2022-12-12T01:00:24.000Z,270.84
2022-12-12T01:02:28.000Z,270.77
2022-12-12T01:03:52.000Z,270.77
2022-12-12T01:05:56.000Z,270.84
2022-12-12T01:08:45.000Z,270.77
2022-12-12T01:10:09.000Z,270.77
2022-12-12T01:12:13.000Z,270.77
2022-12-12T01:13:37.000Z,270.77
2022-12-12T01:15:40.000Z,270.77
2022-12-12T01:17:05.000Z,270.77
2022-12-12T01:19:08.000Z,270.77
2022-12-12T01:20:33.000Z,270.77
2022-12-12T01:22:36.000Z,270.77
2022-12-12T01:24:01.000Z,270.77
2022-12-12T01:26:04.000Z,270.77
2022-12-12T01:27:28.000Z,270.77
2022-12-12T01:29:32.000Z,270.71
2022-12-12T01:30:56.000Z,270.71
2022-12-12T01:33:00.000Z,270.71
2022-12-12T01:34:24.000Z,270.71
2022-12-12T01:36:28.000Z,270.71
2022-12-12T01:37:52.000Z,270.71
2022-12-12T01:39:56.000Z,270.65
2022-12-12T01:41:20.000Z,270.65
2022-12-12T01:43:24.000Z,270.65
2022-12-12T01:46:13.000Z,270.65
2022-12-12T01:47:37.000Z,270.59
2022-12-12T01:49:41.000Z,270.59
2022-12-12T01:51:05.000Z,270.59
2022-12-12T01:53:09.000Z,270.59
2022-12-12T01:54:33.000Z,270.59
2022-12-12T01:56:36.000Z,270.59
2022-12-12T01:58:01.000Z,270.59
2022-12-12T02:00:04.000Z,270.59
2022-12-12T02:01:29.000Z,270.59
2022-12-12T02:03:32.000Z,270.52
2022-12-12T02:04:57.000Z,270.52
2022-12-12T02:07:00.000Z,270.52
2022-12-12T02:08:24.000Z,270.52
2022-12-12T02:10:28.000Z,270.46
2022-12-12T02:11:53.000Z,270.46
2022-12-12T02:13:56.000Z,270.4
2022-12-12T02:15:20.000Z,270.34
2022-12-12T02:17:24.000Z,270.34
2022-12-12T02:18:48.000Z,270.34
2022-12-12T02:20:52.000Z,270.34
2022-12-12T02:23:41.000Z,270.27
2022-12-12T02:25:05.000Z,270.27
2022-12-12T02:27:09.000Z,270.21
2022-12-12T02:28:33.000Z,270.21
2022-12-12T02:30:37.000Z,270.21
2022-12-12T02:32:01.000Z,270.21
2022-12-12T02:34:05.000Z,270.21
2022-12-12T02:35:29.000Z,270.21
2022-12-12T02:37:32.000Z,270.21
2022-12-12T02:38:57.000Z,270.21
2022-12-12T02:41:00.000Z,270.21
2022-12-12T02:42:25.000Z,270.27
2022-12-12T02:44:28.000Z,270.21
2022-12-12T02:45:53.000Z,270.27
2022-12-12T02:47:56.000Z,270.27
2022-12-12T02:49:20.000Z,270.27
2022-12-12T02:51:24.000Z,270.27
2022-12-12T02:52:48.000Z,270.27
2022-12-12T02:54:52.000Z,270.21
2022-12-12T02:56:16.000Z,270.21
2022-12-12T02:58:20.000Z,270.21
2022-12-12T03:01:09.000Z,270.15
2022-12-12T03:02:34.000Z,270.15
2022-12-12T03:04:37.000Z,270.15
2022-12-12T03:06:02.000Z,270.15
2022-12-12T03:08:05.000Z,270.15
2022-12-12T03:09:30.000Z,270.09
2022-12-12T03:11:33.000Z,270.09
2022-12-12T03:12:57.000Z,270.15
2022-12-12T03:15:01.000Z,270.15
2022-12-12T03:16:25.000Z,270.15
2022-12-12T03:18:29.000Z,270.15
2022-12-12T03:19:53.000Z,270.15
2022-12-12T03:21:57.000Z,270.15
2022-12-12T03:23:21.000Z,270.15
2022-12-12T03:25:25.000Z,270.15
2022-12-12T03:26:49.000Z,270.15
2022-12-12T03:28:52.000Z,270.15
2022-12-12T03:30:17.000Z,270.15
2022-12-12T03:32:20.000Z,270.15
2022-12-12T03:33:45.000Z,270.09
2022-12-12T03:35:48.000Z,270.09
2022-12-12T03:38:37.000Z,270.09
2022-12-12T03:40:02.000Z,270.09
2022-12-12T03:42:05.000Z,270.09
2022-12-12T03:43:30.000Z,270.09
2022-12-12T03:45:33.000Z,270.15
2022-12-12T03:46:58.000Z,270.15
2022-12-12T03:49:01.000Z,270.15
2022-12-12T03:50:25.000Z,270.21
2022-12-12T03:52:29.000Z,270.15
2022-12-12T03:53:53.000Z,270.15
2022-12-12T03:55:57.000Z,270.15
2022-12-12T03:57:21.000Z,270.15
2022-12-12T03:59:25.000Z,270.21
2022-12-12T04:00:50.000Z,270.21
2022-12-12T04:02:53.000Z,270.21
2022-12-12T04:04:18.000Z,270.21
2022-12-12T04:06:21.000Z,270.21
2022-12-12T04:07:46.000Z,270.21
2022-12-12T04:09:49.000Z,270.21
2022-12-12T04:11:14.000Z,270.27
2022-12-12T04:13:17.000Z,270.27
2022-12-12T04:16:06.000Z,270.27
2022-12-12T04:17:31.000Z,270.27
2022-12-12T04:19:34.000Z,270.27
2022-12-12T04:20:59.000Z,270.27
2022-12-12T04:23:02.000Z,270.27
2022-12-12T04:24:27.000Z,270.27
2022-12-12T04:26:30.000Z,270.27
2022-12-12T04:27:54.000Z,270.27
2022-12-12T04:29:58.000Z,270.27
2022-12-12T04:31:22.000Z,270.27
2022-12-12T04:33:26.000Z,270.34
2022-12-12T04:34:50.000Z,270.27
2022-12-12T04:36:54.000Z,270.27
2022-12-12T04:38:18.000Z,270.27
2022-12-12T04:40:22.000Z,270.27
2022-12-12T04:41:46.000Z,270.21
2022-12-12T04:43:50.000Z,270.21
2022-12-12T04:45:14.000Z,270.21
2022-12-12T04:47:17.000Z,270.27
2022-12-12T04:48:42.000Z,270.27
2022-12-12T04:50:45.000Z,270.21
2022-12-12T04:53:34.000Z,270.21
2022-12-12T04:54:59.000Z,270.21
2022-12-12T04:57:02.000Z,270.21
2022-12-12T04:58:27.000Z,270.21
2022-12-12T05:00:30.000Z,270.15
2022-12-12T05:01:55.000Z,270.15
2022-12-12T05:03:58.000Z,270.15
2022-12-12T05:05:22.000Z,270.09
2022-12-12T05:07:26.000Z,270.09
2022-12-12T05:08:50.000Z,270.09
2022-12-12T05:10:54.000Z,270.02
2022-12-12T05:12:18.000Z,270.02
2022-12-12T05:14:21.000Z,269.9
2022-12-12T05:15:46.000Z,269.9
2022-12-12T05:17:49.000Z,269.9
2022-12-12T05:19:14.000Z,269.84
2022-12-12T05:21:17.000Z,269.71
2022-12-12T05:22:41.000Z,269.65
2022-12-12T05:24:45.000Z,269.65
2022-12-12T05:26:09.000Z,269.59
2022-12-12T05:28:13.000Z,269.52
2022-12-12T05:31:02.000Z,269.46
2022-12-12T05:32:26.000Z,269.46
2022-12-12T05:34:30.000Z,269.4
2022-12-12T05:35:54.000Z,269.34
2022-12-12T05:37:58.000Z,269.34
2022-12-12T05:39:22.000Z,269.27
2022-12-12T05:41:25.000Z,269.15
2022-12-12T05:42:50.000Z,269.21
2022-12-12T05:44:53.000Z,269.15
2022-12-12T05:46:18.000Z,269.21
2022-12-12T05:48:21.000Z,269.15
2022-12-12T05:49:47.000Z,269.09
2022-12-12T05:51:50.000Z,269.15
2022-12-12T05:53:14.000Z,269.15
2022-12-12T05:55:18.000Z,269.15
2022-12-12T05:56:42.000Z,269.15
2022-12-12T05:58:46.000Z,269.15
2022-12-12T06:00:10.000Z,269.15
2022-12-12T06:02:14.000Z,269.15
2022-12-12T06:03:38.000Z,269.21
2022-12-12T06:05:42.000Z,269.21
2022-12-12T06:08:31.000Z,269.21
2022-12-12T06:09:56.000Z,269.27
2022-12-12T06:11:59.000Z,269.27
2022-12-12T06:13:24.000Z,269.34
2022-12-12T06:15:27.000Z,269.34
2022-12-12T06:16:51.000Z,269.4
2022-12-12T06:18:55.000Z,269.46
2022-12-12T06:20:19.000Z,269.46
2022-12-12T06:22:23.000Z,269.52
2022-12-12T06:23:47.000Z,269.52
2022-12-12T06:25:51.000Z,269.46
2022-12-12T06:27:15.000Z,269.46
2022-12-12T06:29:19.000Z,269.46
2022-12-12T06:30:43.000Z,269.46
2022-12-12T06:32:47.000Z,269.46
2022-12-12T06:34:11.000Z,269.52
2022-12-12T06:36:14.000Z,269.59
2022-12-12T06:37:39.000Z,269.59
2022-12-12T06:39:42.000Z,269.59
2022-12-12T06:41:07.000Z,269.65
2022-12-12T06:43:10.000Z,269.65
2022-12-12T06:46:00.000Z,269.59
2022-12-12T06:47:24.000Z,269.65
2022-12-12T06:49:27.000Z,269.71
2022-12-12T06:50:52.000Z,269.71
2022-12-12T06:52:55.000Z,269.71
2022-12-12T06:54:20.000Z,269.71
2022-12-12T06:56:23.000Z,269.77
2022-12-12T06:57:48.000Z,269.71
2022-12-12T06:59:51.000Z,269.77
2022-12-12T07:01:15.000Z,269.77
2022-12-12T07:03:19.000Z,269.77
2022-12-12T07:04:43.000Z,269.77
2022-12-12T07:06:47.000Z,269.71
2022-12-12T07:08:11.000Z,269.77
2022-12-12T07:10:15.000Z,269.77
2022-12-12T07:11:43.000Z,269.77
2022-12-12T07:13:47.000Z,269.77
2022-12-12T07:15:11.000Z,269.77
2022-12-12T07:17:15.000Z,269.71
2022-12-12T07:18:39.000Z,269.77
2022-12-12T07:20:43.000Z,269.77
2022-12-12T07:23:32.000Z,269.77
2022-12-12T07:24:56.000Z,269.84
2022-12-12T07:27:00.000Z,269.77
2022-12-12T07:28:24.000Z,269.84
2022-12-12T07:30:28.000Z,269.9
2022-12-12T07:31:52.000Z,269.84
2022-12-12T07:33:56.000Z,269.84
2022-12-12T07:35:20.000Z,269.84
2022-12-12T07:37:24.000Z,269.84
2022-12-12T07:38:48.000Z,269.9
2022-12-12T07:40:51.000Z,269.96
2022-12-12T07:42:16.000Z,269.96
2022-12-12T07:44:19.000Z,270.02
2022-12-12T07:45:44.000Z,270.02
2022-12-12T07:47:47.000Z,270.02
2022-12-12T07:49:12.000Z,269.96
2022-12-12T07:51:15.000Z,270.09
2022-12-12T07:52:40.000Z,270.09
2022-12-12T07:54:43.000Z,270.09
2022-12-12T07:56:08.000Z,270.09
2022-12-12T07:58:11.000Z,270.09
2022-12-12T08:01:01.000Z,270.02
2022-12-12T08:02:25.000Z,270.02
2022-12-12T08:04:28.000Z,270.02
2022-12-12T08:05:53.000Z,270.02
2022-12-12T08:07:57.000Z,270.02
2022-12-12T08:09:21.000Z,270.02
2022-12-12T08:11:24.000Z,269.96
2022-12-12T08:12:49.000Z,270.02
2022-12-12T08:14:52.000Z,270.09
2022-12-12T08:16:17.000Z,270.02
2022-12-12T08:18:20.000Z,270.09
2022-12-12T08:19:45.000Z,270.15
2022-12-12T08:21:48.000Z,270.09
2022-12-12T08:23:13.000Z,270.02
2022-12-12T08:25:16.000Z,269.96
2022-12-12T08:26:41.000Z,270.09
2022-12-12T08:28:44.000Z,270.02
2022-12-12T08:30:09.000Z,270.09
2022-12-12T08:32:12.000Z,270.02
2022-12-12T08:33:36.000Z,270.02
2022-12-12T08:35:40.000Z,270.09
2022-12-12T08:38:29.000Z,270.09
2022-12-12T08:39:54.000Z,270.02
2022-12-12T08:41:57.000Z,269.9
2022-12-12T08:43:21.000Z,269.96
2022-12-12T08:45:25.000Z,270.02
2022-12-12T08:46:49.000Z,269.96
2022-12-12T08:48:53.000Z,270.02
2022-12-12T08:50:17.000Z,269.96
2022-12-12T08:52:21.000Z,269.96
2022-12-12T08:53:45.000Z,269.9
2022-12-12T08:55:49.000Z,269.9
2022-12-12T08:57:13.000Z,269.96
2022-12-12T08:59:16.000Z,270.15
2022-12-12T09:00:41.000Z,270.21
2022-12-12T09:02:44.000Z,270.27
2022-12-12T09:04:09.000Z,270.4
2022-12-12T09:06:13.000Z,270.46
2022-12-12T09:07:37.000Z,270.34
2022-12-12T09:09:41.000Z,270.34
2022-12-12T09:11:05.000Z,270.27
2022-12-12T09:13:09.000Z,270.34
2022-12-12T09:15:58.000Z,270.34
2022-12-12T09:17:23.000Z,270.4
2022-12-12T09:19:26.000Z,270.52
2022-12-12T09:20:50.000Z,270.52
2022-12-12T09:22:54.000Z,270.65
2022-12-12T09:24:18.000Z,270.71
2022-12-12T09:26:22.000Z,270.65
2022-12-12T09:27:46.000Z,270.71
2022-12-12T09:29:50.000Z,270.77
2022-12-12T09:31:14.000Z,270.77
2022-12-12T09:33:17.000Z,270.65
2022-12-12T09:34:42.000Z,270.65
2022-12-12T09:36:45.000Z,270.59
2022-12-12T09:38:10.000Z,270.71
2022-12-12T09:40:16.000Z,270.71
2022-12-12T09:41:41.000Z,270.77
2022-12-12T09:43:44.000Z,270.71
2022-12-12T09:45:08.000Z,270.65
2022-12-12T09:47:13.000Z,270.71
2022-12-12T09:48:37.000Z,270.59
2022-12-12T09:50:40.000Z,270.52
2022-12-12T09:53:30.000Z,270.34
2022-12-12T09:54:54.000Z,270.34
2022-12-12T09:56:57.000Z,270.34
2022-12-12T09:58:22.000Z,270.46
2022-12-12T10:00:26.000Z,270.52
2022-12-12T10:01:50.000Z,270.59
2022-12-12T10:03:54.000Z,270.71
2022-12-12T10:05:18.000Z,270.59
2022-12-12T10:07:22.000Z,270.52
2022-12-12T10:08:46.000Z,270.59
2022-12-12T10:10:50.000Z,270.77
2022-12-12T10:12:14.000Z,270.65
2022-12-12T10:14:17.000Z,270.46
2022-12-12T10:15:42.000Z,270.52
2022-12-12T10:17:45.000Z,270.71
2022-12-12T10:19:10.000Z,270.65
2022-12-12T10:21:13.000Z,270.71
2022-12-12T10:22:37.000Z,270.71
2022-12-12T10:24:41.000Z,270.71
2022-12-12T10:26:05.000Z,270.65
2022-12-12T10:28:09.000Z,270.71
2022-12-12T10:30:58.000Z,270.84
2022-12-12T10:32:23.000Z,270.84
2022-12-12T10:34:26.000Z,270.77
2022-12-12T10:35:50.000Z,270.77
2022-12-12T10:37:54.000Z,270.77
2022-12-12T10:39:18.000Z,270.84
2022-12-12T10:41:22.000Z,270.9
2022-12-12T10:42:46.000Z,270.96
2022-12-12T10:44:50.000Z,270.84
2022-12-12T10:46:14.000Z,270.96
2022-12-12T10:48:18.000Z,271.09
2022-12-12T10:49:42.000Z,271.21
2022-12-12T10:51:45.000Z,271.21
2022-12-12T10:53:10.000Z,271.09
2022-12-12T10:55:13.000Z,271.09
2022-12-12T10:56:38.000Z,270.77
2022-12-12T10:58:41.000Z,270.96
2022-12-12T11:00:06.000Z,271.02
2022-12-12T11:02:09.000Z,271.09
2022-12-12T11:03:34.000Z,271.21
2022-12-12T11:05:37.000Z,271.27
2022-12-12T11:08:26.000Z,271.34
2022-12-12T11:09:51.000Z,271.4
2022-12-12T11:12:00.000Z,271.34
2022-12-12T11:13:24.000Z,271.4
2022-12-12T11:15:28.000Z,271.34
2022-12-12T11:16:52.000Z,271.34
2022-12-12T11:18:56.000Z,271.46
2022-12-12T11:20:20.000Z,271.46
2022-12-12T11:22:24.000Z,271.52
2022-12-12T11:23:48.000Z,271.46
2022-12-12T11:25:52.000Z,271.46
2022-12-12T11:27:16.000Z,271.4
2022-12-12T11:29:19.000Z,271.4
2022-12-12T11:30:44.000Z,271.27
2022-12-12T11:32:47.000Z,271.09
2022-12-12T11:34:12.000Z,271.15
2022-12-12T11:36:16.000Z,271.09
2022-12-12T11:37:40.000Z,270.9
2022-12-12T11:39:44.000Z,270.77
2022-12-12T11:41:08.000Z,270.96
2022-12-12T11:43:11.000Z,271.09
2022-12-12T11:46:01.000Z,271.27
2022-12-12T11:47:25.000Z,271.27
2022-12-12T11:49:29.000Z,271.27
2022-12-12T11:50:53.000Z,271.21
2022-12-12T11:52:57.000Z,271.27
2022-12-12T11:54:21.000Z,271.34
2022-12-12T11:56:24.000Z,271.27
2022-12-12T11:57:49.000Z,271.21
2022-12-12T11:59:52.000Z,271.27
2022-12-12T12:01:17.000Z,271.34
2022-12-12T12:03:20.000Z,271.27
2022-12-12T12:04:45.000Z,271.34
2022-12-12T12:06:54.000Z,271.34
2022-12-12T12:08:19.000Z,271.27
2022-12-12T12:10:22.000Z,271.27
2022-12-12T12:11:48.000Z,271.27
2022-12-12T12:13:52.000Z,271.15
2022-12-12T12:15:16.000Z,271.15
2022-12-12T12:17:20.000Z,271.15
2022-12-12T12:18:44.000Z,271.09
2022-12-12T12:20:48.000Z,271.02
2022-12-12T12:23:37.000Z,270.96
2022-12-12T12:25:05.000Z,271.15
2022-12-12T12:27:09.000Z,271.15
2022-12-12T12:28:33.000Z,271.21
2022-12-12T12:30:37.000Z,271.21
2022-12-12T12:32:01.000Z,271.15
2022-12-12T12:34:04.000Z,271.15
2022-12-12T12:35:29.000Z,271.21
2022-12-12T12:37:32.000Z,271.21
2022-12-12T12:38:57.000Z,271.15
2022-12-12T12:41:00.000Z,271.15
2022-12-12T12:42:25.000Z,271.21
2022-12-12T12:44:28.000Z,271.15
2022-12-12T12:45:52.000Z,271.21
2022-12-12T12:47:56.000Z,271.21
2022-12-12T12:49:21.000Z,271.15
2022-12-12T12:51:24.000Z,271.02
2022-12-12T12:52:48.000Z,271.09
2022-12-12T12:54:52.000Z,271.02
2022-12-12T12:56:16.000Z,271.09
2022-12-12T12:58:27.000Z,271.09
2022-12-12T13:01:16.000Z,271.02
2022-12-12T13:02:41.000Z,271.09
2022-12-12T13:04:44.000Z,271.09
2022-12-12T13:06:09.000Z,271.09
2022-12-12T13:08:12.000Z,271.15
2022-12-12T13:09:37.000Z,271.15
2022-12-12T13:11:40.000Z,271.15
2022-12-12T13:13:05.000Z,271.09
2022-12-12T13:15:08.000Z,271.15
2022-12-12T13:16:32.000Z,271.15
2022-12-12T13:18:36.000Z,271.09
2022-12-12T13:20:08.000Z,271.09
2022-12-12T13:22:18.000Z,271.09
2022-12-12T13:23:42.000Z,271.02
2022-12-12T13:25:45.000Z,270.96
2022-12-12T13:27:10.000Z,271.02
2022-12-12T13:29:13.000Z,270.9
2022-12-12T13:30:38.000Z,270.9
2022-12-12T13:32:41.000Z,270.96
2022-12-12T13:34:06.000Z,270.96
2022-12-12T13:36:09.000Z,270.84
2022-12-12T13:38:58.000Z,270.9
2022-12-12T13:40:23.000Z,270.84
2022-12-12T13:42:26.000Z,270.84
2022-12-12T13:43:51.000Z,270.84
2022-12-12T13:45:54.000Z,270.84
2022-12-12T13:47:19.000Z,270.84
2022-12-12T13:49:22.000Z,270.9
2022-12-12T13:50:46.000Z,270.77
2022-12-12T13:52:50.000Z,270.77
2022-12-12T13:54:14.000Z,270.71
2022-12-12T13:56:18.000Z,270.71
2022-12-12T13:57:42.000Z,270.71
2022-12-12T13:59:46.000Z,270.59
2022-12-12T14:01:10.000Z,270.65
2022-12-12T14:03:14.000Z,270.59
2022-12-12T14:04:38.000Z,270.65
2022-12-12T14:06:42.000Z,270.59
2022-12-12T14:08:06.000Z,270.59
2022-12-12T14:10:10.000Z,270.52
2022-12-12T14:11:34.000Z,270.52
2022-12-12T14:13:38.000Z,270.52
2022-12-12T14:16:27.000Z,270.52
2022-12-12T14:17:52.000Z,270.46
2022-12-12T14:19:55.000Z,270.52
2022-12-12T14:21:20.000Z,270.46
2022-12-12T14:23:23.000Z,270.52
2022-12-12T14:24:47.000Z,270.46
2022-12-12T14:26:51.000Z,270.46
2022-12-12T14:28:15.000Z,270.46
2022-12-12T14:30:19.000Z,270.4
2022-12-12T14:31:43.000Z,270.34
2022-12-12T14:33:47.000Z,270.27
2022-12-12T14:35:11.000Z,270.15
2022-12-12T14:37:15.000Z,270.15
2022-12-12T14:38:39.000Z,270.15
2022-12-12T14:40:42.000Z,269.96
2022-12-12T14:42:07.000Z,269.96
2022-12-12T14:44:10.000Z,269.96
2022-12-12T14:46:01.000Z,270.02
2022-12-12T14:48:04.000Z,269.96
2022-12-12T14:49:29.000Z,269.9
2022-12-12T14:51:32.000Z,269.84
2022-12-12T14:54:21.000Z,269.71
2022-12-12T14:55:46.000Z,269.71
2022-12-12T14:57:49.000Z,269.71
2022-12-12T14:59:14.000Z,269.65
2022-12-12T15:01:17.000Z,269.65
2022-12-12T15:02:42.000Z,269.71
2022-12-12T15:04:45.000Z,269.77
2022-12-12T15:06:10.000Z,269.71
2022-12-12T15:08:13.000Z,269.71
2022-12-12T15:09:37.000Z,269.65
2022-12-12T15:11:41.000Z,269.59
2022-12-12T15:13:05.000Z,269.52
2022-12-12T15:15:09.000Z,269.52
2022-12-12T15:16:33.000Z,269.52
2022-12-12T15:18:37.000Z,269.46
2022-12-12T15:20:01.000Z,269.46
2022-12-12T15:22:04.000Z,269.34
2022-12-12T15:23:29.000Z,269.4
2022-12-12T15:25:32.000Z,269.34
2022-12-12T15:26:57.000Z,269.27
2022-12-12T15:29:00.000Z,269.21
2022-12-12T15:31:49.000Z,269.09
2022-12-12T15:33:14.000Z,269.15
2022-12-12T15:35:17.000Z,269.02
2022-12-12T15:36:42.000Z,269.02
2022-12-12T15:38:45.000Z,268.96
2022-12-12T15:40:09.000Z,268.96
2022-12-12T15:42:13.000Z,268.96
2022-12-12T15:43:38.000Z,268.9
2022-12-12T15:45:41.000Z,268.84
2022-12-12T15:47:06.000Z,268.77
2022-12-12T15:49:09.000Z,268.71
2022-12-12T15:50:33.000Z,268.71
2022-12-12T15:52:37.000Z,268.71
2022-12-12T15:54:01.000Z,268.71
2022-12-12T15:56:05.000Z,268.71
2022-12-12T15:57:29.000Z,268.71
2022-12-12T15:59:32.000Z,268.59
2022-12-12T16:00:57.000Z,268.59
2022-12-12T16:03:00.000Z,268.52
2022-12-12T16:04:25.000Z,268.59
2022-12-12T16:06:28.000Z,268.59
2022-12-12T16:09:17.000Z,268.52
2022-12-12T16:10:42.000Z,268.52
2022-12-12T16:12:45.000Z,268.46
2022-12-12T16:14:10.000Z,268.46
2022-12-12T16:16:13.000Z,268.4
2022-12-12T16:17:38.000Z,268.34
2022-12-12T16:19:41.000Z,268.4
2022-12-12T16:21:05.000Z,268.34
2022-12-12T16:23:09.000Z,268.34
2022-12-12T16:24:33.000Z,268.34
2022-12-12T16:26:37.000Z,268.27
2022-12-12T16:28:01.000Z,268.21
2022-12-12T16:30:04.000Z,268.15
2022-12-12T16:31:29.000Z,268.09
2022-12-12T16:33:32.000Z,268.09
2022-12-12T16:34:57.000Z,268.02
2022-12-12T16:37:00.000Z,267.9
2022-12-12T16:38:25.000Z,268.02
2022-12-12T16:40:28.000Z,268.09
2022-12-12T16:41:53.000Z,268.02
2022-12-12T16:43:56.000Z,267.96
2022-12-12T16:46:45.000Z,267.84
2022-12-12T16:48:10.000Z,267.84
2022-12-12T16:50:13.000Z,267.77
2022-12-12T16:51:38.000Z,267.84
2022-12-12T16:53:42.000Z,267.9
2022-12-12T16:55:06.000Z,267.9
2022-12-12T16:57:09.000Z,267.84
2022-12-12T16:58:34.000Z,267.84
2022-12-12T17:00:37.000Z,267.71
2022-12-12T17:02:02.000Z,267.71
2022-12-12T17:04:05.000Z,267.65
2022-12-12T17:05:30.000Z,267.59
2022-12-12T17:07:33.000Z,267.59
2022-12-12T17:08:58.000Z,267.52
2022-12-12T17:11:01.000Z,267.52
2022-12-12T17:12:33.000Z,267.52
2022-12-12T17:14:36.000Z,267.52
2022-12-12T17:16:00.000Z,267.59
2022-12-12T17:18:04.000Z,267.65
2022-12-12T17:19:28.000Z,267.65
2022-12-12T17:21:32.000Z,267.65
2022-12-12T17:24:21.000Z,267.59
2022-12-12T17:25:45.000Z,267.59
2022-12-12T17:27:49.000Z,267.46
2022-12-12T17:29:13.000Z,267.46
2022-12-12T17:31:17.000Z,267.4
2022-12-12T17:32:41.000Z,267.46
2022-12-12T17:34:44.000Z,267.4
2022-12-12T17:36:09.000Z,267.34
2022-12-12T17:38:12.000Z,267.46
2022-12-12T17:39:39.000Z,267.46
2022-12-12T17:41:42.000Z,267.34
2022-12-12T17:43:06.000Z,267.34
2022-12-12T17:45:10.000Z,267.27
2022-12-12T17:46:34.000Z,267.27
2022-12-12T17:48:38.000Z,267.34
2022-12-12T17:50:02.000Z,267.34
2022-12-12T17:52:05.000Z,267.34
2022-12-12T17:53:30.000Z,267.27
2022-12-12T17:55:33.000Z,267.27
2022-12-12T17:57:18.000Z,267.27
2022-12-12T17:59:26.000Z,267.21
2022-12-12T18:02:15.000Z,267.15
2022-12-12T18:03:40.000Z,267.15
2022-12-12T18:05:43.000Z,267.15
2022-12-12T18:07:07.000Z,267.15
2022-12-12T18:09:11.000Z,267.09
2022-12-12T18:10:35.000Z,267.15
2022-12-12T18:12:39.000Z,267.15
2022-12-12T18:14:03.000Z,267.15
2022-12-12T18:16:07.000Z,267.09
2022-12-12T18:17:31.000Z,267.09
2022-12-12T18:19:35.000Z,267.02
2022-12-12T18:20:59.000Z,267.02
2022-12-12T18:23:02.000Z,266.9
2022-12-12T18:24:27.000Z,266.9
2022-12-12T18:26:30.000Z,266.96
2022-12-12T18:27:55.000Z,266.84
2022-12-12T18:29:58.000Z,266.84
2022-12-12T18:31:22.000Z,266.84
2022-12-12T18:33:26.000Z,266.84
2022-12-12T18:34:50.000Z,266.9
2022-12-12T18:36:54.000Z,266.84
2022-12-12T18:39:43.000Z,266.71
2022-12-12T18:41:07.000Z,266.59
2022-12-12T18:43:11.000Z,266.52
2022-12-12T18:44:35.000Z,266.52
2022-12-12T18:46:39.000Z,266.46
2022-12-12T18:48:05.000Z,266.46
2022-12-12T18:50:09.000Z,266.46
2022-12-12T18:51:34.000Z,266.4
2022-12-12T18:53:37.000Z,266.34
2022-12-12T18:55:02.000Z,266.34
2022-12-12T18:57:05.000Z,266.4
2022-12-12T18:58:30.000Z,266.34
2022-12-12T19:00:33.000Z,266.4
2022-12-12T19:01:58.000Z,266.4
2022-12-12T19:04:01.000Z,266.27
2022-12-12T19:05:33.000Z,266.21
2022-12-12T19:07:36.000Z,266.21
2022-12-12T19:09:00.000Z,266.15
2022-12-12T19:11:04.000Z,266.09
2022-12-12T19:12:28.000Z,266.02
2022-12-12T19:14:32.000Z,266.09
2022-12-12T19:17:55.000Z,266.09
2022-12-12T19:19:20.000Z,266.09
2022-12-12T19:21:23.000Z,266.15
2022-12-12T19:22:47.000Z,266.27
2022-12-12T19:24:51.000Z,266.27
2022-12-12T19:26:15.000Z,266.21
2022-12-12T19:28:18.000Z,266.15
2022-12-12T19:29:43.000Z,266.15
2022-12-12T19:31:46.000Z,266.15
2022-12-12T19:33:17.000Z,266.09
2022-12-12T19:35:21.000Z,266.15
2022-12-12T19:36:45.000Z,266.15
2022-12-12T19:38:48.000Z,266.21
2022-12-12T19:40:13.000Z,266.15
2022-12-12T19:42:17.000Z,266.21
2022-12-12T19:43:42.000Z,266.21
2022-12-12T19:45:45.000Z,266.21
2022-12-12T19:47:09.000Z,266.27
2022-12-12T19:49:13.000Z,266.34
2022-12-12T19:50:37.000Z,266.4
2022-12-12T19:52:41.000Z,266.34
2022-12-12T19:55:30.000Z,266.34
2022-12-12T19:56:55.000Z,266.34
2022-12-12T19:58:58.000Z,266.34
2022-12-12T20:00:22.000Z,266.46
2022-12-12T20:02:26.000Z,266.46
2022-12-12T20:03:50.000Z,266.46
2022-12-12T20:05:54.000Z,266.46
2022-12-12T20:07:18.000Z,266.52
2022-12-12T20:09:22.000Z,266.71
2022-12-12T20:10:46.000Z,266.71
2022-12-12T20:12:49.000Z,266.77
2022-12-12T20:14:20.000Z,266.9
2022-12-12T20:16:23.000Z,266.96
2022-12-12T20:17:48.000Z,266.96
2022-12-12T20:19:51.000Z,266.96
2022-12-12T20:21:16.000Z,266.96
2022-12-12T20:24:00.000Z,266.96
2022-12-12T20:25:24.000Z,266.96
2022-12-12T20:27:28.000Z,266.96
2022-12-12T20:28:52.000Z,267.02
2022-12-12T20:30:56.000Z,266.96
2022-12-12T20:33:45.000Z,266.96
2022-12-12T20:35:09.000Z,266.9
2022-12-12T20:37:13.000Z,267.02
2022-12-12T20:38:42.000Z,266.96
2022-12-12T20:40:46.000Z,266.96
2022-12-12T20:42:10.000Z,266.96
2022-12-12T20:44:13.000Z,267.09
2022-12-12T20:45:38.000Z,267.09
2022-12-12T20:47:41.000Z,267.09
2022-12-12T20:49:06.000Z,267.02
2022-12-12T20:51:09.000Z,267.02
2022-12-12T20:53:15.000Z,267.02
2022-12-12T20:55:19.000Z,267.02
2022-12-12T20:56:43.000Z,267.09
2022-12-12T20:58:48.000Z,267.09
2022-12-12T21:00:12.000Z,267.02
2022-12-12T21:02:16.000Z,267.09
2022-12-12T21:03:41.000Z,267.09
2022-12-12T21:05:44.000Z,267.09
2022-12-12T21:07:09.000Z,267.09
2022-12-12T21:09:12.000Z,267.09
2022-12-12T21:12:10.000Z,267.15
2022-12-12T21:13:35.000Z,267.15
2022-12-12T21:15:38.000Z,267.09
2022-12-12T21:17:03.000Z,267.09
2022-12-12T21:19:06.000Z,267.15
2022-12-12T21:20:31.000Z,267.09
2022-12-12T21:22:34.000Z,267.02
2022-12-12T21:23:59.000Z,267.09
2022-12-12T21:26:02.000Z,267.09
2022-12-12T21:27:26.000Z,267.09
2022-12-12T21:29:30.000Z,267.15
2022-12-12T21:30:54.000Z,267.15
2022-12-12T21:32:58.000Z,267.21
2022-12-12T21:34:22.000Z,267.27
2022-12-12T21:36:26.000Z,267.34
2022-12-12T21:37:50.000Z,267.46
2022-12-12T21:39:54.000Z,267.46
2022-12-12T21:41:18.000Z,267.46
2022-12-12T21:43:22.000Z,267.34
2022-12-12T21:44:46.000Z,267.4
2022-12-12T21:46:50.000Z,267.4
2022-12-12T21:49:40.000Z,267.34
2022-12-12T21:51:04.000Z,267.46
2022-12-12T21:53:07.000Z,267.52
2022-12-12T21:54:32.000Z,267.52
2022-12-12T21:56:35.000Z,267.46
2022-12-12T21:58:00.000Z,267.4
2022-12-12T22:00:03.000Z,267.34
2022-12-12T22:01:27.000Z,267.27
2022-12-12T22:03:31.000Z,267.27
2022-12-12T22:04:55.000Z,267.4
2022-12-12T22:06:59.000Z,267.15
2022-12-12T22:08:23.000Z,267.27
2022-12-12T22:10:27.000Z,267.34
2022-12-12T22:11:51.000Z,267.34
2022-12-12T22:14:06.000Z,267.27
2022-12-12T22:15:30.000Z,267.34
2022-12-12T22:17:34.000Z,267.34
2022-12-12T22:18:58.000Z,267.4
2022-12-12T22:21:07.000Z,267.52
2022-12-12T22:22:31.000Z,267.52